sensor_id;sensor_type;location;lat;lon;timestamp;pressure;altitude;pressure_sealevel;temperature;humidity
30856;BME280;17570;0.000;0.000;2024-01-16T08:03:26;96414.52;;;14.49;30.75
30856;BME280;17570;0.000;0.000;2024-01-16T08:05:53;96404.75;;;15.58;28.82
30856;BME280;17570;0.000;0.000;2024-01-16T08:08:21;96404.73;;;16.83;27.06
30856;BME280;17570;0.000;0.000;2024-01-16T08:10:49;96405.34;;;17.46;26.33
30856;BME280;17570;0.000;0.000;2024-01-16T08:13:17;96417.08;;;17.73;25.43
30856;BME280;17570;0.000;0.000;2024-01-16T08:15:44;96409.13;;;17.81;25.21
30856;BME280;17570;0.000;0.000;2024-01-16T08:18:12;96430.29;;;17.80;25.73
30856;BME280;17570;0.000;0.000;2024-01-16T08:20:40;96437.70;;;17.76;25.06
30856;BME280;17570;0.000;0.000;2024-01-16T08:23:08;96451.33;;;17.72;25.20
30856;BME280;17570;0.000;0.000;2024-01-16T08:25:35;96458.13;;;17.66;25.59
30856;BME280;17570;0.000;0.000;2024-01-16T08:28:03;96479.65;;;17.62;25.33
30856;BME280;17570;0.000;0.000;2024-01-16T08:30:31;96484.99;;;17.53;25.81
30856;BME280;17570;0.000;0.000;2024-01-16T08:32:58;96486.96;;;17.51;25.74
30856;BME280;17570;0.000;0.000;2024-01-16T08:35:26;96491.74;;;17.48;25.57
30856;BME280;17570;0.000;0.000;2024-01-16T08:37:53;96499.98;;;17.45;25.86
30856;BME280;17570;0.000;0.000;2024-01-16T08:40:21;96491.64;;;17.41;25.92
30856;BME280;17570;0.000;0.000;2024-01-16T08:42:48;96489.36;;;17.38;26.01
30856;BME280;17570;0.000;0.000;2024-01-16T08:45:17;96491.70;;;17.33;26.31
30856;BME280;17570;0.000;0.000;2024-01-16T08:47:45;96487.45;;;17.32;25.77
30856;BME280;17570;0.000;0.000;2024-01-16T08:50:12;96482.39;;;17.30;26.37
30856;BME280;17570;0.000;0.000;2024-01-16T08:52:41;96501.91;;;17.28;25.72
30856;BME280;17570;0.000;0.000;2024-01-16T08:55:08;96512.39;;;17.28;25.90
30856;BME280;17570;0.000;0.000;2024-01-16T08:57:39;96513.73;;;17.24;25.62
30856;BME280;17570;0.000;0.000;2024-01-16T09:00:06;96521.12;;;17.20;25.74
30856;BME280;17570;0.000;0.000;2024-01-16T09:02:36;96526.08;;;17.15;25.52
30856;BME280;17570;0.000;0.000;2024-01-16T09:05:04;96529.36;;;17.17;25.64
30856;BME280;17570;0.000;0.000;2024-01-16T09:07:31;96529.52;;;17.16;25.69
30856;BME280;17570;0.000;0.000;2024-01-16T09:09:59;96538.38;;;17.15;25.69
30856;BME280;17570;0.000;0.000;2024-01-16T09:12:27;96547.58;;;17.11;25.15
30856;BME280;17570;0.000;0.000;2024-01-16T09:14:54;96550.39;;;17.09;24.95
30856;BME280;17570;0.000;0.000;2024-01-16T09:17:22;96532.36;;;17.06;24.96
30856;BME280;17570;0.000;0.000;2024-01-16T09:19:49;96535.35;;;17.03;25.53
30856;BME280;17570;0.000;0.000;2024-01-16T09:22:17;96539.78;;;17.02;25.14
30856;BME280;17570;0.000;0.000;2024-01-16T09:24:44;96538.94;;;17.02;24.83
30856;BME280;17570;0.000;0.000;2024-01-16T09:27:12;96538.94;;;17.02;24.58
30856;BME280;17570;0.000;0.000;2024-01-16T09:29:41;96557.14;;;17.03;24.48
30856;BME280;17570;0.000;0.000;2024-01-16T09:32:08;96561.91;;;17.00;24.99
30856;BME280;17570;0.000;0.000;2024-01-16T09:34:36;96558.47;;;16.99;25.58
30856;BME280;17570;0.000;0.000;2024-01-16T09:37:03;96560.91;;;17.01;25.16
30856;BME280;17570;0.000;0.000;2024-01-16T09:39:31;96563.83;;;17.06;24.74
30856;BME280;17570;0.000;0.000;2024-01-16T09:42:00;96566.63;;;17.04;25.03
30856;BME280;17570;0.000;0.000;2024-01-16T09:44:28;96563.53;;;17.01;25.04
30856;BME280;17570;0.000;0.000;2024-01-16T09:46:55;96551.08;;;17.03;25.45
30856;BME280;17570;0.000;0.000;2024-01-16T09:49:25;96547.98;;;16.99;25.32
30856;BME280;17570;0.000;0.000;2024-01-16T09:51:52;96545.06;;;16.94;25.07
30856;BME280;17570;0.000;0.000;2024-01-16T09:54:20;96549.50;;;16.94;25.35
30856;BME280;17570;0.000;0.000;2024-01-16T09:56:48;96551.30;;;16.93;25.18
30856;BME280;17570;0.000;0.000;2024-01-16T09:59:17;96558.66;;;16.98;24.60
30856;BME280;17570;0.000;0.000;2024-01-16T10:01:52;96562.42;;;16.95;24.48
30856;BME280;17570;0.000;0.000;2024-01-16T10:04:16;96553.92;;;16.93;24.52
30856;BME280;17570;0.000;0.000;2024-01-16T10:06:45;96547.87;;;16.93;24.50
30856;BME280;17570;0.000;0.000;2024-01-16T10:09:15;96544.28;;;16.86;24.96
30856;BME280;17570;0.000;0.000;2024-01-16T10:11:43;96547.42;;;16.81;24.87
30856;BME280;17570;0.000;0.000;2024-01-16T10:14:11;96556.28;;;16.80;25.30
30856;BME280;17570;0.000;0.000;2024-01-16T10:19:30;96567.27;;;16.75;24.90
30856;BME280;17570;0.000;0.000;2024-01-16T10:22:00;96570.39;;;16.63;24.55
30856;BME280;17570;0.000;0.000;2024-01-16T10:24:23;96578.92;;;16.65;24.37
30856;BME280;17570;0.000;0.000;2024-01-16T10:26:57;96574.13;;;16.68;24.65
30856;BME280;17570;0.000;0.000;2024-01-16T10:29:19;96581.67;;;16.71;24.85
30856;BME280;17570;0.000;0.000;2024-01-16T10:31:47;96567.27;;;16.75;24.75
30856;BME280;17570;0.000;0.000;2024-01-16T10:34:21;96575.13;;;16.75;24.89
30856;BME280;17570;0.000;0.000;2024-01-16T10:36:50;96567.27;;;16.75;25.19
30856;BME280;17570;0.000;0.000;2024-01-16T10:39:18;96573.33;;;16.76;24.87
30856;BME280;17570;0.000;0.000;2024-01-16T10:41:56;96568.09;;;16.76;25.10
30856;BME280;17570;0.000;0.000;2024-01-16T10:44:23;96565.13;;;16.79;24.85
30856;BME280;17570;0.000;0.000;2024-01-16T10:46:51;96568.90;;;16.76;24.91
30856;BME280;17570;0.000;0.000;2024-01-16T10:49:18;96573.96;;;16.78;24.63
30856;BME280;17570;0.000;0.000;2024-01-16T10:51:46;96575.26;;;16.82;25.15
30856;BME280;17570;0.000;0.000;2024-01-16T10:54:15;96567.39;;;16.82;25.07
30856;BME280;17570;0.000;0.000;2024-01-16T10:56:44;96571.01;;;16.81;24.83
30856;BME280;17570;0.000;0.000;2024-01-16T10:59:24;96574.11;;;16.85;24.49
30856;BME280;17570;0.000;0.000;2024-01-16T11:01:51;96577.06;;;16.81;24.66
30856;BME280;17570;0.000;0.000;2024-01-16T11:04:20;96580.02;;;16.78;24.61
30856;BME280;17570;0.000;0.000;2024-01-16T11:06:50;96589.54;;;16.79;24.84
30856;BME280;17570;0.000;0.000;2024-01-16T11:09:17;96595.23;;;16.83;24.46
30856;BME280;17570;0.000;0.000;2024-01-16T11:11:45;96589.98;;;16.83;24.43
30856;BME280;17570;0.000;0.000;2024-01-16T11:14:13;96576.25;;;16.81;24.42
30856;BME280;17570;0.000;0.000;2024-01-16T11:16:42;96583.30;;;16.80;24.95
30856;BME280;17570;0.000;0.000;2024-01-16T11:19:09;96591.34;;;16.79;24.29
30856;BME280;17570;0.000;0.000;2024-01-16T11:21:37;96584.75;;;16.83;24.33
30856;BME280;17570;0.000;0.000;2024-01-16T11:24:06;96592.61;;;16.83;23.99
30856;BME280;17570;0.000;0.000;2024-01-16T11:26:34;96598.52;;;16.85;24.00
30856;BME280;17570;0.000;0.000;2024-01-16T11:31:51;96602.46;;;16.81;24.37
30856;BME280;17570;0.000;0.000;2024-01-16T11:37:05;96601.49;;;16.74;23.88
30856;BME280;17570;0.000;0.000;2024-01-16T11:39:34;96596.09;;;16.67;24.00
30856;BME280;17570;0.000;0.000;2024-01-16T11:42:02;96592.33;;;16.70;23.85
30856;BME280;17570;0.000;0.000;2024-01-16T11:44:40;96596.58;;;16.71;23.48
30856;BME280;17570;0.000;0.000;2024-01-16T11:46:59;96604.59;;;16.69;24.19
30856;BME280;17570;0.000;0.000;2024-01-16T11:49:28;96615.61;;;16.65;23.93
30856;BME280;17570;0.000;0.000;2024-01-16T11:51:57;96617.56;;;16.63;23.99
30856;BME280;17570;0.000;0.000;2024-01-16T11:54:24;96605.27;;;16.63;23.72
30856;BME280;17570;0.000;0.000;2024-01-16T11:57:08;96602.14;;;16.68;23.40
30856;BME280;17570;0.000;0.000;2024-01-16T12:02:10;96626.44;;;16.45;24.03
30856;BME280;17570;0.000;0.000;2024-01-16T12:04:38;96618.93;;;16.42;23.80
30856;BME280;17570;0.000;0.000;2024-01-16T12:07:05;96615.64;;;16.40;24.19
30856;BME280;17570;0.000;0.000;2024-01-16T12:09:33;96617.62;;;16.46;23.94
30856;BME280;17570;0.000;0.000;2024-01-16T12:12:03;96626.92;;;16.49;23.80
30856;BME280;17570;0.000;0.000;2024-01-16T12:14:30;96622.86;;;16.46;23.83
30856;BME280;17570;0.000;0.000;2024-01-16T12:17:10;96631.85;;;16.44;24.15
30856;BME280;17570;0.000;0.000;2024-01-16T12:19:38;96625.63;;;16.45;23.80
30856;BME280;17570;0.000;0.000;2024-01-16T12:22:08;96634.66;;;16.34;23.48
30856;BME280;17570;0.000;0.000;2024-01-16T12:24:36;96641.20;;;16.30;23.97
30856;BME280;17570;0.000;0.000;2024-01-16T12:27:04;96638.41;;;16.31;24.50
30856;BME280;17570;0.000;0.000;2024-01-16T12:29:32;96649.23;;;16.28;24.23
30856;BME280;17570;0.000;0.000;2024-01-16T12:32:09;96658.55;;;16.31;24.14
30856;BME280;17570;0.000;0.000;2024-01-16T12:34:44;96671.00;;;16.29;24.66
30856;BME280;17570;0.000;0.000;2024-01-16T12:37:14;96667.73;;;16.19;24.94
30856;BME280;17570;0.000;0.000;2024-01-16T12:39:42;96679.17;;;16.18;24.84
30856;BME280;17570;0.000;0.000;2024-01-16T12:42:09;96671.98;;;16.20;24.84
30856;BME280;17570;0.000;0.000;2024-01-16T12:44:38;96681.30;;;16.22;25.07
30856;BME280;17570;0.000;0.000;2024-01-16T12:47:05;96671.98;;;16.20;25.07
30856;BME280;17570;0.000;0.000;2024-01-16T12:49:40;96679.17;;;16.18;25.23
30856;BME280;17570;0.000;0.000;2024-01-16T12:52:16;96694.23;;;16.16;25.44
30856;BME280;17570;0.000;0.000;2024-01-16T12:54:46;96698.98;;;16.20;25.53
30856;BME280;17570;0.000;0.000;2024-01-16T12:57:17;96698.16;;;16.12;25.64
30856;BME280;17570;0.000;0.000;2024-01-16T12:59:46;96698.48;;;16.17;25.80
30856;BME280;17570;0.000;0.000;2024-01-16T13:02:24;96715.52;;;16.21;25.88
30856;BME280;17570;0.000;0.000;2024-01-16T13:04:58;96715.20;;;16.24;25.88
30856;BME280;17570;0.000;0.000;2024-01-16T13:07:26;96717.00;;;16.23;26.30
30856;BME280;17570;0.000;0.000;2024-01-16T13:10:11;96708.16;;;16.24;26.17
30856;BME280;17570;0.000;0.000;2024-01-16T13:12:35;96711.92;;;16.30;25.94
30856;BME280;17570;0.000;0.000;2024-01-16T13:15:03;96711.91;;;16.22;26.22
30856;BME280;17570;0.000;0.000;2024-01-16T13:17:33;96712.41;;;16.25;26.60
30856;BME280;17570;0.000;0.000;2024-01-16T13:20:01;96709.79;;;16.25;25.98
30856;BME280;17570;0.000;0.000;2024-01-16T13:22:30;96712.56;;;16.65;29.16
30856;BME280;17570;0.000;0.000;2024-01-16T13:24:57;96723.04;;;16.81;31.65
30856;BME280;17570;0.000;0.000;2024-01-16T13:27:25;96723.36;;;16.78;32.01
30856;BME280;17570;0.000;0.000;2024-01-16T13:29:53;96726.95;;;16.69;30.25
30856;BME280;17570;0.000;0.000;2024-01-16T13:32:20;96724.68;;;16.66;30.22
30856;BME280;17570;0.000;0.000;2024-01-16T13:34:48;96716.15;;;16.64;28.79
30856;BME280;17570;0.000;0.000;2024-01-16T13:37:19;96733.03;;;16.61;28.69
30856;BME280;17570;0.000;0.000;2024-01-16T13:39:45;96748.58;;;16.63;29.27
30856;BME280;17570;0.000;0.000;2024-01-16T13:42:12;96752.37;;;16.60;28.34
30856;BME280;17570;0.000;0.000;2024-01-16T13:44:41;96745.15;;;16.62;27.56
30856;BME280;17570;0.000;0.000;2024-01-16T13:47:09;96752.86;;;16.55;28.68
30856;BME280;17570;0.000;0.000;2024-01-16T13:49:37;96761.04;;;16.52;27.24
30856;BME280;17570;0.000;0.000;2024-01-16T13:52:06;96773.33;;;16.52;27.23
30856;BME280;17570;0.000;0.000;2024-01-16T13:54:36;96775.12;;;16.43;27.74
30856;BME280;17570;0.000;0.000;2024-01-16T13:57:03;96782.65;;;16.38;27.65
30856;BME280;17570;0.000;0.000;2024-01-16T13:59:30;96784.44;;;16.29;27.01
30856;BME280;17570;0.000;0.000;2024-01-16T14:01:58;96788.53;;;16.24;27.16
30856;BME280;17570;0.000;0.000;2024-01-16T14:04:25;96792.76;;;16.17;27.30
30856;BME280;17570;0.000;0.000;2024-01-16T14:06:53;96793.41;;;16.11;27.35
30856;BME280;17570;0.000;0.000;2024-01-16T14:09:20;96802.05;;;16.03;27.34
30856;BME280;17570;0.000;0.000;2024-01-16T14:11:48;96804.34;;;15.98;27.48
30856;BME280;17570;0.000;0.000;2024-01-16T14:14:15;96804.81;;;15.93;27.55
30856;BME280;17570;0.000;0.000;2024-01-16T14:16:43;96804.98;;;15.92;27.51
30856;BME280;17570;0.000;0.000;2024-01-16T14:19:11;96801.21;;;15.86;27.60
30856;BME280;17570;0.000;0.000;2024-01-16T14:21:38;96808.38;;;15.84;27.65
30856;BME280;17570;0.000;0.000;2024-01-16T14:24:06;96809.02;;;15.78;27.76
30856;BME280;17570;0.000;0.000;2024-01-16T14:26:33;96792.00;;;15.74;27.69
30856;BME280;17570;0.000;0.000;2024-01-16T14:29:01;96792.16;;;15.72;27.65
30856;BME280;17570;0.000;0.000;2024-01-16T14:31:28;96793.77;;;15.65;27.59
30856;BME280;17570;0.000;0.000;2024-01-16T14:33:56;96785.53;;;15.60;27.82
30856;BME280;17570;0.000;0.000;2024-01-16T14:36:23;96790.26;;;15.56;28.20
30856;BME280;17570;0.000;0.000;2024-01-16T14:38:51;96785.83;;;15.49;27.98
30856;BME280;17570;0.000;0.000;2024-01-16T14:41:18;96778.59;;;15.43;28.03
30856;BME280;17570;0.000;0.000;2024-01-16T14:43:47;96783.64;;;15.36;28.23
30856;BME280;17570;0.000;0.000;2024-01-16T14:46:14;96788.00;;;15.27;28.35
30856;BME280;17570;0.000;0.000;2024-01-16T14:48:45;96783.41;;;15.21;28.57
30856;BME280;17570;0.000;0.000;2024-01-16T14:51:12;96783.35;;;15.13;28.50
30856;BME280;17570;0.000;0.000;2024-01-16T14:53:40;96788.69;;;15.03;28.49
30856;BME280;17570;0.000;0.000;2024-01-16T14:56:07;96785.88;;;14.97;28.64
30856;BME280;17570;0.000;0.000;2024-01-16T14:58:36;96786.34;;;14.92;29.05
30856;BME280;17570;0.000;0.000;2024-01-16T15:01:03;96794.25;;;14.83;29.10
30856;BME280;17570;0.000;0.000;2024-01-16T15:03:32;96799.11;;;14.77;29.06
30856;BME280;17570;0.000;0.000;2024-01-16T15:05:59;96791.53;;;14.66;29.23
30856;BME280;17570;0.000;0.000;2024-01-16T15:08:27;96801.91;;;14.58;29.49
30856;BME280;17570;0.000;0.000;2024-01-16T15:10:57;96810.52;;;14.50;29.54
30856;BME280;17570;0.000;0.000;2024-01-16T15:13:26;96816.73;;;14.40;29.55
30856;BME280;17570;0.000;0.000;2024-01-16T15:15:53;96811.05;;;14.26;29.87
30856;BME280;17570;0.000;0.000;2024-01-16T15:18:22;96817.16;;;14.17;29.84
30856;BME280;17570;0.000;0.000;2024-01-16T15:20:50;96832.61;;;14.11;30.28
30856;BME280;17570;0.000;0.000;2024-01-16T15:23:17;96837.07;;;14.00;30.52
30856;BME280;17570;0.000;0.000;2024-01-16T15:25:45;96841.53;;;13.90;30.08
30856;BME280;17570;0.000;0.000;2024-01-16T15:28:12;96845.83;;;13.82;30.25
30856;BME280;17570;0.000;0.000;2024-01-16T15:30:40;96857.12;;;13.72;30.60
30856;BME280;17570;0.000;0.000;2024-01-16T15:33:09;96853.73;;;13.62;30.72
30856;BME280;17570;0.000;0.000;2024-01-16T15:35:36;96859.81;;;13.53;30.83
30856;BME280;17570;0.000;0.000;2024-01-16T15:38:04;96860.36;;;13.47;30.92
30856;BME280;17570;0.000;0.000;2024-01-16T15:40:31;96861.09;;;13.39;31.21
30856;BME280;17570;0.000;0.000;2024-01-16T15:42:59;96869.77;;;13.30;30.94
30856;BME280;17570;0.000;0.000;2024-01-16T15:45:27;96871.39;;;13.21;31.13
30856;BME280;17570;0.000;0.000;2024-01-16T15:47:54;96873.60;;;13.16;31.46
30856;BME280;17570;0.000;0.000;2024-01-16T15:50:22;96880.47;;;13.08;31.23
30856;BME280;17570;0.000;0.000;2024-01-16T15:52:50;96884.17;;;12.95;31.52
30856;BME280;17570;0.000;0.000;2024-01-16T15:55:18;96882.95;;;12.90;31.97
30856;BME280;17570;0.000;0.000;2024-01-16T15:57:46;96880.77;;;12.85;31.57
30856;BME280;17570;0.000;0.000;2024-01-16T16:00:13;96885.97;;;12.85;31.68
30856;BME280;17570;0.000;0.000;2024-01-16T16:02:42;96888.98;;;12.81;31.76
30856;BME280;17570;0.000;0.000;2024-01-16T16:05:11;96886.53;;;12.69;32.20
30856;BME280;17570;0.000;0.000;2024-01-16T16:07:39;96887.06;;;12.63;32.58
30856;BME280;17570;0.000;0.000;2024-01-16T16:10:06;96888.44;;;12.58;32.28
30856;BME280;17570;0.000;0.000;2024-01-16T16:12:35;96882.96;;;12.51;31.97
30856;BME280;17570;0.000;0.000;2024-01-16T16:15:03;96885.41;;;12.43;32.52
30856;BME280;17570;0.000;0.000;2024-01-16T16:17:31;96890.61;;;12.33;32.60
30856;BME280;17570;0.000;0.000;2024-01-16T16:19:59;96897.69;;;12.21;32.30
30856;BME280;17570;0.000;0.000;2024-01-16T16:22:26;96900.69;;;12.17;32.63
30856;BME280;17570;0.000;0.000;2024-01-16T16:24:54;96902.62;;;12.15;32.23
30856;BME280;17570;0.000;0.000;2024-01-16T16:27:24;96906.44;;;12.11;32.55
30856;BME280;17570;0.000;0.000;2024-01-16T16:29:52;96908.62;;;12.06;32.92
30856;BME280;17570;0.000;0.000;2024-01-16T16:32:26;96911.61;;;12.01;33.17
30856;BME280;17570;0.000;0.000;2024-01-16T16:34:51;96910.80;;;12.00;32.89
30856;BME280;17570;0.000;0.000;2024-01-16T16:37:19;96920.06;;;11.93;33.12
30856;BME280;17570;0.000;0.000;2024-01-16T16:39:47;96918.00;;;11.87;33.24
30856;BME280;17570;0.000;0.000;2024-01-16T16:42:15;96921.92;;;11.82;33.24
30856;BME280;17570;0.000;0.000;2024-01-16T16:44:44;96924.66;;;11.80;33.42
30856;BME280;17570;0.000;0.000;2024-01-16T16:47:11;96923.27;;;11.76;33.25
30856;BME280;17570;0.000;0.000;2024-01-16T16:49:39;96923.27;;;11.76;33.56
30856;BME280;17570;0.000;0.000;2024-01-16T16:52:12;96935.70;;;11.72;33.31
30856;BME280;17570;0.000;0.000;2024-01-16T16:54:36;96936.77;;;11.70;33.39
30856;BME280;17570;0.000;0.000;2024-01-16T16:57:04;96944.14;;;11.65;33.48
30856;BME280;17570;0.000;0.000;2024-01-16T16:59:31;96939.77;;;11.86;33.48
30856;BME280;17570;0.000;0.000;2024-01-16T17:01:59;96939.86;;;12.15;33.13
30856;BME280;17570;0.000;0.000;2024-01-16T17:04:26;96931.91;;;12.17;32.78
30856;BME280;17570;0.000;0.000;2024-01-16T17:06:54;96938.73;;;11.98;32.92
30856;BME280;17570;0.000;0.000;2024-01-16T17:09:21;96934.56;;;11.86;33.25
30856;BME280;17570;0.000;0.000;2024-01-16T17:11:49;96936.13;;;11.78;33.49
30856;BME280;17570;0.000;0.000;2024-01-16T17:14:16;96930.64;;;11.71;33.48
30856;BME280;17570;0.000;0.000;2024-01-16T17:16:45;96942.23;;;11.88;33.54
30856;BME280;17570;0.000;0.000;2024-01-16T17:19:12;96948.77;;;12.13;33.33
30856;BME280;17570;0.000;0.000;2024-01-16T17:21:40;96947.45;;;12.28;33.11
30856;BME280;17570;0.000;0.000;2024-01-16T17:24:08;96954.09;;;12.11;32.84
30856;BME280;17570;0.000;0.000;2024-01-16T17:26:35;96948.25;;;11.88;33.91
30856;BME280;17570;0.000;0.000;2024-01-16T17:29:04;96952.52;;;11.89;32.68
30856;BME280;17570;0.000;0.000;2024-01-16T17:31:32;96952.05;;;12.15;33.39
30856;BME280;17570;0.000;0.000;2024-01-16T17:34:00;96942.80;;;12.32;33.18
30856;BME280;17570;0.000;0.000;2024-01-16T17:36:27;96943.83;;;12.10;33.97
30856;BME280;17570;0.000;0.000;2024-01-16T17:38:55;96955.38;;;11.86;33.91
30856;BME280;17570;0.000;0.000;2024-01-16T17:41:29;96957.02;;;11.87;33.11
30856;BME280;17570;0.000;0.000;2024-01-16T17:43:55;96963.67;;;12.11;33.23
30856;BME280;17570;0.000;0.000;2024-01-16T17:46:22;96966.73;;;12.25;33.06
30856;BME280;17570;0.000;0.000;2024-01-16T17:48:50;96969.11;;;12.38;32.89
30856;BME280;17570;0.000;0.000;2024-01-16T17:51:17;96971.12;;;12.25;32.98
30856;BME280;17570;0.000;0.000;2024-01-16T17:53:46;96977.00;;;11.87;34.77
30856;BME280;17570;0.000;0.000;2024-01-16T17:56:14;96975.34;;;11.65;33.17
30856;BME280;17570;0.000;0.000;2024-01-16T17:58:43;96976.75;;;11.90;33.09
30856;BME280;17570;0.000;0.000;2024-01-16T18:01:10;96978.22;;;12.13;33.39
30856;BME280;17570;0.000;0.000;2024-01-16T18:03:42;96980.56;;;12.26;32.97
30856;BME280;17570;0.000;0.000;2024-01-16T18:06:11;96976.35;;;12.35;33.27
30856;BME280;17570;0.000;0.000;2024-01-16T18:08:38;96973.04;;;12.23;33.83
30856;BME280;17570;0.000;0.000;2024-01-16T18:11:06;96974.14;;;11.90;33.70
30856;BME280;17570;0.000;0.000;2024-01-16T18:13:33;96971.81;;;11.66;34.21
30856;BME280;17570;0.000;0.000;2024-01-16T18:16:03;96971.47;;;11.80;33.55
30856;BME280;17570;0.000;0.000;2024-01-16T18:18:32;96968.70;;;12.03;33.73
30856;BME280;17570;0.000;0.000;2024-01-16T18:20:59;96976.86;;;12.19;33.45
30856;BME280;17570;0.000;0.000;2024-01-16T18:23:27;96973.33;;;12.30;33.28
30856;BME280;17570;0.000;0.000;2024-01-16T18:25:54;96976.91;;;12.38;33.48
30856;BME280;17570;0.000;0.000;2024-01-16T18:28:22;96970.49;;;12.42;33.30
30856;BME280;17570;0.000;0.000;2024-01-16T18:30:49;96970.66;;;12.50;33.17
30856;BME280;17570;0.000;0.000;2024-01-16T18:33:18;96971.28;;;12.33;32.73
30856;BME280;17570;0.000;0.000;2024-01-16T18:35:45;96969.38;;;11.95;34.83
30856;BME280;17570;0.000;0.000;2024-01-16T18:38:13;96977.73;;;11.78;34.11
30856;BME280;17570;0.000;0.000;2024-01-16T18:40:47;96985.67;;;11.76;33.29
30856;BME280;17570;0.000;0.000;2024-01-16T18:43:12;96976.51;;;12.03;33.40
30856;BME280;17570;0.000;0.000;2024-01-16T18:45:41;96969.73;;;12.21;33.40
30856;BME280;17570;0.000;0.000;2024-01-16T18:48:08;96969.76;;;12.31;33.26
30856;BME280;17570;0.000;0.000;2024-01-16T18:50:36;96973.64;;;12.36;33.03
30856;BME280;17570;0.000;0.000;2024-01-16T18:53:04;96963.76;;;12.40;32.69
30856;BME280;17570;0.000;0.000;2024-01-16T18:55:31;96960.50;;;12.47;33.37
30856;BME280;17570;0.000;0.000;2024-01-16T18:57:59;96960.03;;;12.23;33.45
30856;BME280;17570;0.000;0.000;2024-01-16T19:00:28;96958.41;;;11.91;32.88
30856;BME280;17570;0.000;0.000;2024-01-16T19:02:55;96954.97;;;11.70;33.21
30856;BME280;17570;0.000;0.000;2024-01-16T19:05:23;96964.28;;;11.93;33.33
30856;BME280;17570;0.000;0.000;2024-01-16T19:07:51;96955.73;;;12.12;33.38
30856;BME280;17570;0.000;0.000;2024-01-16T19:10:18;96953.05;;;12.23;33.24
30856;BME280;17570;0.000;0.000;2024-01-16T19:12:46;96954.03;;;12.32;33.37
30856;BME280;17570;0.000;0.000;2024-01-16T19:15:15;96954.31;;;12.39;33.48
30856;BME280;17570;0.000;0.000;2024-01-16T19:17:44;96953.77;;;12.45;33.44
30856;BME280;17570;0.000;0.000;2024-01-16T19:20:12;96958.57;;;12.49;33.22
30856;BME280;17570;0.000;0.000;2024-01-16T19:22:40;96953.92;;;12.53;32.66
30856;BME280;17570;0.000;0.000;2024-01-16T19:25:08;96956.34;;;12.35;33.96
30856;BME280;17570;0.000;0.000;2024-01-16T19:27:38;96957.76;;;11.99;33.28
30856;BME280;17570;0.000;0.000;2024-01-16T19:30:08;96956.64;;;11.71;33.64
30856;BME280;17570;0.000;0.000;2024-01-16T19:32:37;96955.62;;;11.83;33.62
30856;BME280;17570;0.000;0.000;2024-01-16T19:35:04;96953.55;;;12.08;33.59
30856;BME280;17570;0.000;0.000;2024-01-16T19:37:33;96947.98;;;12.22;33.22
30856;BME280;17570;0.000;0.000;2024-01-16T19:40:02;96949.23;;;12.28;33.60
30856;BME280;17570;0.000;0.000;2024-01-16T19:42:29;96939.23;;;12.33;33.23
30856;BME280;17570;0.000;0.000;2024-01-16T19:44:57;96943.34;;;12.35;33.16
30856;BME280;17570;0.000;0.000;2024-01-16T19:47:24;96939.41;;;12.41;33.05
30856;BME280;17570;0.000;0.000;2024-01-16T19:49:52;96942.00;;;12.41;33.18
30856;BME280;17570;0.000;0.000;2024-01-16T19:52:19;96940.75;;;12.45;32.91
30856;BME280;17570;0.000;0.000;2024-01-16T19:54:47;96943.23;;;12.46;33.37
30856;BME280;17570;0.000;0.000;2024-01-16T19:57:14;96942.95;;;12.49;32.97
30856;BME280;17570;0.000;0.000;2024-01-16T19:59:42;96945.28;;;12.43;34.11
30856;BME280;17570;0.000;0.000;2024-01-16T20:02:09;96945.03;;;12.06;33.91
30856;BME280;17570;0.000;0.000;2024-01-16T20:04:40;96945.58;;;11.79;33.33
30856;BME280;17570;0.000;0.000;2024-01-16T20:07:08;96951.06;;;11.55;33.81
30856;BME280;17570;0.000;0.000;2024-01-16T20:09:37;96948.70;;;11.72;33.25
30856;BME280;17570;0.000;0.000;2024-01-16T20:12:05;96941.44;;;11.97;33.33
30856;BME280;17570;0.000;0.000;2024-01-16T20:14:33;96953.27;;;12.11;33.14
30856;BME280;17570;0.000;0.000;2024-01-16T20:17:00;96949.20;;;12.18;32.83
30856;BME280;17570;0.000;0.000;2024-01-16T20:19:28;96952.79;;;12.27;33.23
30856;BME280;17570;0.000;0.000;2024-01-16T20:21:56;96960.45;;;12.28;33.45
30856;BME280;17570;0.000;0.000;2024-01-16T20:24:23;96966.48;;;12.29;33.50
30856;BME280;17570;0.000;0.000;2024-01-16T20:26:53;96969.36;;;12.35;32.57
30856;BME280;17570;0.000;0.000;2024-01-16T20:29:21;96975.95;;;12.39;33.29
30856;BME280;17570;0.000;0.000;2024-01-16T20:31:48;96973.13;;;12.12;32.45
30856;BME280;17570;0.000;0.000;2024-01-16T20:34:16;96983.08;;;11.76;33.42
30856;BME280;17570;0.000;0.000;2024-01-16T20:36:45;96981.11;;;11.68;33.10
30856;BME280;17570;0.000;0.000;2024-01-16T20:39:14;96984.12;;;11.85;33.05
30856;BME280;17570;0.000;0.000;2024-01-16T20:41:42;96982.24;;;11.96;32.82
30856;BME280;17570;0.000;0.000;2024-01-16T20:44:10;96973.09;;;12.02;32.88
30856;BME280;17570;0.000;0.000;2024-01-16T20:46:39;96975.15;;;11.98;32.65
30856;BME280;17570;0.000;0.000;2024-01-16T20:49:06;96976.97;;;12.08;32.72
30856;BME280;17570;0.000;0.000;2024-01-16T20:51:35;96976.43;;;12.14;33.05
30856;BME280;17570;0.000;0.000;2024-01-16T20:54:02;96983.42;;;12.13;33.17
30856;BME280;17570;0.000;0.000;2024-01-16T20:56:31;96989.16;;;12.17;33.16
30856;BME280;17570;0.000;0.000;2024-01-16T20:58:58;96989.05;;;12.18;32.69
30856;BME280;17570;0.000;0.000;2024-01-16T21:01:26;96994.11;;;12.20;33.37
30856;BME280;17570;0.000;0.000;2024-01-16T21:03:53;96999.17;;;12.21;33.03
30856;BME280;17570;0.000;0.000;2024-01-16T21:06:21;97002.88;;;12.19;32.24
30856;BME280;17570;0.000;0.000;2024-01-16T21:08:48;96999.56;;;12.17;33.12
30856;BME280;17570;0.000;0.000;2024-01-16T21:11:17;97011.26;;;12.22;33.41
30856;BME280;17570;0.000;0.000;2024-01-16T21:13:44;97016.46;;;12.22;32.98
30856;BME280;17570;0.000;0.000;2024-01-16T21:16:12;97034.25;;;12.17;34.36
30856;BME280;17570;0.000;0.000;2024-01-16T21:18:39;97038.73;;;12.15;33.22
30856;BME280;17570;0.000;0.000;2024-01-16T21:21:09;97039.84;;;12.13;33.15
30856;BME280;17570;0.000;0.000;2024-01-16T21:23:37;97048.19;;;12.16;34.21
30856;BME280;17570;0.000;0.000;2024-01-16T21:26:07;97049.58;;;12.20;33.29
30856;BME280;17570;0.000;0.000;2024-01-16T21:28:35;97056.56;;;12.20;33.01